createdAt,value
2023-03-10T00:00:42.141Z,10.00
2023-03-10T00:02:49.470Z,10.00
2023-03-10T00:04:52.577Z,10.00
2023-03-10T00:06:55.581Z,10.00
2023-03-10T00:08:59.252Z,10.00
2023-03-10T00:11:03.538Z,10.10
2023-03-10T00:13:06.368Z,10.10
2023-03-10T00:15:10.123Z,10.20
2023-03-10T00:17:12.944Z,10.20
2023-03-10T00:19:17.035Z,10.30
2023-03-10T00:21:21.858Z,10.40
2023-03-10T00:23:24.566Z,10.40
2023-03-10T00:25:27.435Z,10.50
2023-03-10T00:27:30.234Z,10.50
2023-03-10T00:29:32.981Z,10.40
2023-03-10T00:31:36.026Z,10.40
2023-03-10T00:33:39.376Z,10.50
2023-03-10T00:35:43.584Z,10.40
2023-03-10T00:37:46.389Z,10.50
2023-03-10T00:39:51.959Z,10.40
2023-03-10T00:41:54.672Z,10.50
2023-03-10T00:43:58.191Z,10.40
2023-03-10T00:46:01.765Z,10.50
2023-03-10T00:48:04.733Z,10.40
2023-03-10T00:50:08.055Z,10.40
2023-03-10T00:52:12.122Z,10.40
2023-03-10T00:54:14.958Z,10.50
2023-03-10T00:56:19.948Z,10.40
2023-03-10T00:58:22.876Z,10.40
2023-03-10T01:00:25.805Z,10.40
2023-03-10T01:02:29.573Z,10.40
2023-03-10T01:04:32.330Z,10.40
2023-03-10T01:06:47.316Z,10.40
2023-03-10T01:08:51.647Z,10.40
2023-03-10T01:10:54.439Z,10.40
2023-03-10T01:12:57.389Z,10.30
2023-03-10T01:15:00.276Z,10.30
2023-03-10T01:17:03.994Z,10.30
2023-03-10T01:19:06.921Z,10.30
2023-03-10T01:21:17.794Z,10.20
2023-03-10T01:23:23.067Z,10.20
2023-03-10T01:25:28.106Z,10.10
2023-03-10T01:27:31.088Z,10.10
2023-03-10T01:29:33.874Z,10.10
2023-03-10T01:31:41.775Z,10.00
2023-03-10T01:33:45.826Z,10.00
2023-03-10T01:35:48.660Z,10.00
2023-03-10T01:37:51.398Z,9.90
2023-03-10T01:39:54.142Z,9.90
2023-03-10T01:41:58.390Z,9.80
2023-03-10T01:44:03.340Z,9.80
2023-03-10T01:46:32.950Z,9.70
2023-03-10T01:48:37.682Z,9.70
2023-03-10T01:50:56.637Z,9.60
2023-03-10T01:52:59.984Z,9.60
2023-03-10T01:55:07.737Z,9.50
2023-03-10T01:57:16.027Z,9.50
2023-03-10T01:59:20.232Z,9.40
2023-03-10T02:01:23.018Z,9.40
2023-03-10T02:03:28.289Z,9.40
2023-03-10T02:05:32.315Z,9.40
2023-03-10T02:07:38.904Z,9.30
2023-03-10T02:09:45.694Z,9.30
2023-03-10T02:11:50.354Z,9.30
2023-03-10T02:13:55.351Z,9.30
2023-03-10T02:15:58.652Z,9.20
2023-03-10T02:18:03.089Z,9.20
2023-03-10T02:20:27.028Z,9.20
2023-03-10T02:22:30.055Z,9.20
2023-03-10T02:24:42.259Z,9.20
2023-03-10T02:26:52.076Z,9.10
2023-03-10T02:28:58.872Z,9.10
2023-03-10T02:31:03.224Z,9.10
2023-03-10T02:33:08.729Z,9.10
2023-03-10T02:35:12.432Z,9.10
2023-03-10T02:37:23.389Z,9.10
2023-03-10T02:39:26.563Z,9.10
2023-03-10T02:41:32.017Z,9.00
2023-03-10T02:43:36.344Z,9.00
2023-03-10T02:45:43.724Z,9.00
2023-03-10T02:47:46.743Z,9.00
2023-03-10T02:49:49.976Z,9.00
2023-03-10T02:51:52.987Z,9.00
2023-03-10T02:53:55.806Z,9.00
2023-03-10T02:55:59.796Z,9.10
2023-03-10T02:58:03.676Z,9.10
2023-03-10T03:00:09.258Z,9.10
2023-03-10T03:02:13.445Z,9.10
2023-03-10T03:04:16.378Z,9.10
2023-03-10T03:06:19.511Z,9.10
2023-03-10T03:08:22.443Z,9.10
2023-03-10T03:10:25.311Z,9.10
2023-03-10T03:12:28.105Z,9.10
2023-03-10T03:14:30.922Z,9.10
2023-03-10T03:16:33.885Z,9.10
2023-03-10T03:18:38.370Z,9.10
2023-03-10T03:20:41.845Z,9.10
2023-03-10T03:22:46.373Z,9.10
2023-03-10T03:24:49.157Z,9.10
2023-03-10T03:26:52.008Z,9.10
2023-03-10T03:28:58.788Z,9.10
2023-03-10T03:31:01.941Z,9.20
2023-03-10T03:33:05.918Z,9.20
2023-03-10T03:35:12.871Z,9.20
2023-03-10T03:37:18.444Z,9.20
2023-03-10T03:39:21.314Z,9.30
2023-03-10T03:41:24.115Z,9.30
2023-03-10T03:43:27.503Z,9.20
2023-03-10T03:45:32.712Z,9.20
2023-03-10T03:47:35.729Z,9.20
2023-03-10T03:49:38.847Z,9.10
2023-03-10T03:51:43.120Z,9.10
2023-03-10T03:53:46.326Z,9.10
2023-03-10T03:55:51.109Z,9.00
2023-03-10T03:57:53.907Z,9.00
2023-03-10T03:59:56.997Z,9.00
2023-03-10T04:01:59.845Z,9.00
2023-03-10T04:04:02.664Z,9.00
2023-03-10T04:06:07.635Z,9.00
2023-03-10T04:08:13.067Z,9.10
2023-03-10T04:10:19.289Z,9.00
2023-03-10T04:12:22.162Z,9.00
2023-03-10T04:14:24.976Z,9.00
2023-03-10T04:16:27.972Z,9.00
2023-03-10T04:18:30.876Z,9.00
2023-03-10T04:20:33.740Z,9.00
2023-03-10T04:22:37.492Z,9.00
2023-03-10T04:24:41.708Z,9.00
2023-03-10T04:26:44.602Z,9.00
2023-03-10T04:28:47.525Z,9.00
2023-03-10T04:30:50.459Z,9.00
2023-03-10T04:32:53.345Z,9.00
2023-03-10T04:34:56.270Z,9.00
2023-03-10T04:36:59.115Z,9.00
2023-03-10T04:39:02.184Z,9.00
2023-03-10T04:41:07.138Z,9.00
2023-03-10T04:43:10.149Z,9.00
2023-03-10T04:45:14.047Z,9.00
2023-03-10T04:47:16.863Z,9.00
2023-03-10T04:49:19.743Z,9.00
2023-03-10T04:51:22.793Z,9.00
2023-03-10T04:53:25.696Z,9.10
2023-03-10T04:55:28.565Z,9.10
2023-03-10T04:57:32.812Z,9.10
2023-03-10T04:59:35.779Z,9.10
2023-03-10T05:01:38.669Z,9.10
2023-03-10T05:03:41.627Z,9.10
2023-03-10T05:05:44.495Z,9.10
2023-03-10T05:07:47.286Z,9.10
2023-03-10T05:09:50.082Z,9.10
2023-03-10T05:11:52.906Z,9.10
2023-03-10T05:13:57.039Z,9.10
2023-03-10T05:16:00.077Z,9.10
2023-03-10T05:18:02.910Z,9.10
2023-03-10T05:20:09.318Z,9.10
2023-03-10T05:22:12.664Z,9.10
2023-03-10T05:24:15.489Z,9.10
2023-03-10T05:26:18.468Z,9.10
2023-03-10T05:28:21.633Z,9.10
2023-03-10T05:30:25.886Z,9.10
2023-03-10T05:32:28.784Z,9.10
2023-03-10T05:34:31.903Z,9.10
2023-03-10T05:36:35.091Z,9.10
2023-03-10T05:38:38.634Z,9.10
2023-03-10T05:40:44.255Z,9.10
2023-03-10T05:42:47.671Z,9.10
2023-03-10T05:44:50.489Z,9.10
2023-03-10T05:46:54.720Z,9.10
2023-03-10T05:48:58.216Z,9.10
2023-03-10T05:51:04.169Z,9.10
2023-03-10T05:53:07.006Z,9.10
2023-03-10T05:55:13.946Z,9.10
2023-03-10T05:57:16.736Z,9.20
2023-03-10T05:59:19.789Z,9.10
2023-03-10T06:01:22.717Z,9.20
2023-03-10T06:03:28.636Z,9.10
2023-03-10T06:05:31.646Z,9.10
2023-03-10T06:07:35.342Z,9.10
2023-03-10T06:09:38.385Z,9.10
2023-03-10T06:11:41.225Z,9.10
2023-03-10T06:13:44.301Z,9.10
2023-03-10T06:15:49.777Z,9.10
2023-03-10T06:17:52.824Z,9.10
2023-03-10T06:19:57.204Z,9.10
2023-03-10T06:22:00.233Z,9.10
2023-03-10T06:24:04.002Z,9.10
2023-03-10T06:26:13.162Z,9.20
2023-03-10T06:28:15.943Z,9.20
2023-03-10T06:30:19.257Z,9.20
2023-03-10T06:32:22.388Z,9.20
2023-03-10T06:34:25.368Z,9.30
2023-03-10T06:36:31.664Z,9.30
2023-03-10T06:38:34.668Z,9.40
2023-03-10T06:40:37.792Z,9.30
2023-03-10T06:42:41.101Z,9.40
2023-03-10T06:44:46.818Z,9.30
2023-03-10T06:46:52.098Z,9.40
2023-03-10T06:48:55.631Z,9.40
2023-03-10T06:50:58.875Z,9.40
2023-03-10T06:53:03.272Z,9.50
2023-03-10T06:55:07.247Z,9.50
2023-03-10T06:57:10.322Z,9.50
2023-03-10T06:59:13.397Z,9.50
2023-03-10T07:01:24.759Z,9.60
2023-03-10T07:03:28.865Z,9.60
2023-03-10T07:05:31.577Z,9.60
2023-03-10T07:07:34.555Z,9.60
2023-03-10T07:09:38.714Z,9.60
2023-03-10T07:11:41.543Z,9.60
2023-03-10T07:13:44.504Z,9.50
2023-03-10T07:15:47.603Z,9.50
2023-03-10T07:17:50.876Z,9.50
2023-03-10T07:19:53.716Z,9.50
2023-03-10T07:21:56.490Z,9.50
2023-03-10T07:23:59.662Z,9.50
2023-03-10T07:26:07.984Z,9.40
2023-03-10T07:28:10.844Z,9.50
2023-03-10T07:30:13.953Z,9.50
2023-03-10T07:32:17.492Z,9.60
2023-03-10T07:34:20.270Z,9.60
2023-03-10T07:36:24.109Z,9.60
2023-03-10T07:38:27.038Z,9.70
2023-03-10T07:40:29.998Z,9.70
2023-03-10T07:42:34.301Z,9.70
2023-03-10T07:44:37.025Z,9.80
2023-03-10T07:46:39.867Z,9.80
2023-03-10T07:48:43.103Z,9.80
2023-03-10T07:50:46.061Z,9.80
2023-03-10T07:52:49.509Z,9.80
2023-03-10T07:54:52.238Z,9.80
2023-03-10T07:56:54.957Z,9.90
2023-03-10T07:58:59.801Z,10.00
2023-03-10T08:01:03.681Z,10.00
2023-03-10T08:03:06.406Z,10.10
2023-03-10T08:05:10.510Z,10.10
2023-03-10T08:07:13.729Z,10.10
2023-03-10T08:09:16.549Z,10.10
2023-03-10T08:11:20.499Z,10.20
2023-03-10T08:13:23.238Z,10.30
2023-03-10T08:15:27.796Z,10.40
2023-03-10T08:17:31.125Z,10.50
2023-03-10T08:19:33.885Z,10.50
2023-03-10T08:21:36.658Z,10.50
2023-03-10T08:23:40.343Z,10.60
2023-03-10T08:25:43.266Z,10.50
2023-03-10T08:27:46.106Z,10.50
2023-03-10T08:29:48.915Z,10.50
2023-03-10T08:31:53.047Z,10.60
2023-03-10T08:33:57.383Z,10.60
2023-03-10T08:36:08.224Z,10.70
2023-03-10T08:38:11.108Z,10.90
2023-03-10T08:40:14.519Z,11.00
2023-03-10T08:42:17.381Z,11.10
2023-03-10T08:44:21.039Z,11.10
2023-03-10T08:46:25.845Z,11.10
2023-03-10T08:48:30.024Z,11.00
2023-03-10T08:50:35.820Z,11.00
2023-03-10T08:52:38.799Z,10.90
2023-03-10T08:54:41.847Z,10.70
2023-03-10T08:56:44.851Z,10.60
2023-03-10T08:58:47.674Z,10.60
2023-03-10T09:00:50.504Z,10.50
2023-03-10T09:02:53.298Z,10.40
2023-03-10T09:04:57.560Z,10.40
2023-03-10T09:07:00.370Z,10.40
2023-03-10T09:09:03.969Z,10.40
2023-03-10T09:11:06.875Z,10.40
2023-03-10T09:13:14.135Z,10.50
2023-03-10T09:15:17.217Z,10.50
2023-03-10T09:17:20.217Z,10.60
2023-03-10T09:19:23.035Z,10.60
2023-03-10T09:21:29.441Z,10.70
2023-03-10T09:23:33.582Z,10.80
2023-03-10T09:25:36.721Z,10.80
2023-03-10T09:27:39.534Z,10.80
2023-03-10T09:29:43.687Z,10.70
2023-03-10T09:31:48.440Z,10.70
2023-03-10T09:33:51.867Z,10.60
2023-03-10T09:36:07.885Z,10.60
2023-03-10T09:38:12.845Z,10.60
2023-03-10T09:40:18.829Z,10.60
2023-03-10T09:42:38.020Z,10.70
2023-03-10T09:44:44.443Z,10.90
2023-03-10T09:46:54.125Z,11.10
2023-03-10T09:49:03.430Z,11.20
2023-03-10T09:51:15.107Z,11.30
2023-03-10T09:53:36.991Z,11.50
2023-03-10T09:55:47.867Z,11.40
2023-03-10T09:57:54.207Z,11.30
2023-03-10T10:00:02.307Z,11.20
2023-03-10T10:02:17.198Z,11.20
2023-03-10T10:04:24.649Z,11.10
2023-03-10T10:06:31.442Z,11.10
2023-03-10T10:08:44.986Z,11.10
2023-03-10T10:10:54.880Z,11.10
2023-03-10T10:13:02.005Z,11.30
2023-03-10T10:15:16.233Z,11.50
2023-03-10T10:17:29.722Z,11.60
2023-03-10T10:19:36.671Z,11.70
2023-03-10T10:21:46.334Z,11.90
2023-03-10T10:23:52.343Z,12.00
2023-03-10T10:25:56.761Z,12.10
2023-03-10T10:28:02.289Z,12.10
2023-03-10T10:30:27.221Z,12.30
2023-03-10T10:32:30.726Z,12.30
2023-03-10T10:34:34.066Z,12.40
2023-03-10T10:36:41.368Z,12.40
2023-03-10T10:38:51.180Z,12.40
2023-03-10T10:41:01.738Z,12.50
2023-03-10T10:43:07.683Z,12.50
2023-03-10T10:45:28.545Z,12.40
2023-03-10T10:47:33.770Z,12.40
2023-03-10T10:49:38.091Z,12.50
2023-03-10T10:51:41.807Z,12.60
2023-03-10T10:53:45.003Z,12.60
2023-03-10T10:56:01.496Z,12.50
2023-03-10T10:58:10.545Z,12.50
2023-03-10T11:00:40.954Z,12.40
2023-03-10T11:02:44.135Z,12.20
2023-03-10T11:04:48.195Z,12.10
2023-03-10T11:06:52.033Z,12.00
2023-03-10T11:09:08.941Z,12.10
2023-03-10T11:11:23.299Z,12.20
2023-03-10T11:13:34.117Z,12.50
2023-03-10T11:15:43.598Z,12.70
2023-03-10T11:17:53.359Z,12.90
2023-03-10T11:20:06.348Z,13.00
2023-03-10T11:22:39.756Z,13.00
2023-03-10T11:24:56.479Z,13.40
2023-03-10T11:27:08.887Z,13.70
2023-03-10T11:29:25.585Z,13.80
2023-03-10T11:31:39.371Z,14.00
2023-03-10T11:33:51.460Z,14.00
2023-03-10T11:36:00.954Z,14.00
2023-03-10T11:38:16.286Z,14.30
2023-03-10T11:40:24.506Z,14.40
2023-03-10T11:42:33.884Z,14.40
2023-03-10T11:44:42.549Z,14.20
2023-03-10T11:46:57.060Z,14.20
2023-03-10T11:49:07.961Z,14.30
2023-03-10T11:51:21.465Z,14.30
2023-03-10T11:53:32.811Z,14.10
2023-03-10T11:55:39.752Z,13.80
2023-03-10T11:57:48.659Z,13.70
2023-03-10T11:59:57.477Z,13.60
2023-03-10T12:02:06.439Z,13.50
2023-03-10T12:04:17.400Z,13.40
2023-03-10T12:06:26.475Z,13.30
2023-03-10T12:08:34.988Z,13.30
2023-03-10T12:10:44.853Z,13.40
2023-03-10T12:12:51.179Z,13.40
2023-03-10T12:14:54.924Z,13.50
2023-03-10T12:17:00.230Z,13.60
2023-03-10T12:19:07.633Z,13.80
2023-03-10T12:21:19.592Z,13.90
2023-03-10T12:23:42.175Z,13.70
2023-03-10T12:25:47.139Z,13.60
2023-03-10T12:28:22.478Z,13.40
2023-03-10T12:30:47.264Z,13.10
2023-03-10T12:32:50.692Z,13.00
2023-03-10T12:35:43.872Z,12.90
2023-03-10T12:37:47.357Z,12.80
2023-03-10T12:39:51.061Z,12.80
2023-03-10T12:41:55.551Z,12.80
2023-03-10T12:44:01.683Z,12.90
2023-03-10T12:46:05.554Z,12.90
2023-03-10T12:48:14.300Z,12.90
2023-03-10T12:50:27.486Z,12.80
2023-03-10T12:52:48.217Z,12.70
2023-03-10T12:55:02.956Z,12.70
2023-03-10T12:57:30.024Z,12.70
2023-03-10T12:59:41.148Z,12.70
2023-03-10T13:01:55.573Z,12.80
2023-03-10T13:03:59.637Z,12.90
2023-03-10T13:06:06.273Z,12.90
2023-03-10T13:08:18.889Z,12.80
2023-03-10T13:10:25.250Z,12.70
2023-03-10T13:12:32.519Z,12.40
2023-03-10T13:14:39.634Z,12.10
2023-03-10T13:16:53.553Z,11.80
2023-03-10T13:19:00.480Z,11.50
2023-03-10T13:21:03.610Z,11.30
2023-03-10T13:23:07.515Z,11.20
2023-03-10T13:25:15.673Z,11.00
2023-03-10T13:27:24.037Z,10.90
2023-03-10T13:29:28.198Z,10.80
2023-03-10T13:31:34.438Z,10.70
2023-03-10T13:33:50.114Z,10.70
2023-03-10T13:35:55.739Z,10.70
2023-03-10T13:38:10.506Z,10.60
2023-03-10T13:40:18.350Z,10.60
2023-03-10T13:42:33.990Z,10.60
2023-03-10T13:44:44.685Z,10.60
2023-03-10T13:46:55.632Z,10.50
2023-03-10T13:49:03.869Z,10.50
2023-03-10T13:51:13.670Z,10.40
2023-03-10T13:53:26.514Z,10.30
2023-03-10T13:55:30.358Z,10.30
2023-03-10T13:57:35.875Z,10.20
2023-03-10T13:59:39.782Z,10.10
2023-03-10T14:01:47.721Z,10.10
2023-03-10T14:04:02.580Z,10.10
2023-03-10T14:06:15.967Z,10.20
2023-03-10T14:08:27.859Z,10.20
2023-03-10T14:10:31.358Z,10.30
2023-03-10T14:12:40.716Z,10.40
2023-03-10T14:14:44.740Z,10.50
2023-03-10T14:16:58.070Z,10.50
2023-03-10T14:19:05.764Z,10.30
2023-03-10T14:21:29.953Z,10.20
2023-03-10T14:23:37.945Z,10.10
2023-03-10T14:25:43.713Z,10.00
2023-03-10T14:28:37.573Z,10.00
2023-03-10T14:30:45.970Z,10.00
2023-03-10T14:32:49.696Z,10.00
2023-03-10T14:34:54.605Z,10.00
2023-03-10T14:36:59.997Z,10.00
2023-03-10T14:39:03.191Z,10.00
2023-03-10T14:41:07.166Z,9.90
2023-03-10T14:43:17.001Z,9.90
2023-03-10T14:45:27.384Z,9.90
2023-03-10T14:47:31.207Z,9.90
2023-03-10T14:49:34.390Z,9.80
2023-03-10T14:51:38.752Z,9.80
2023-03-10T14:53:43.159Z,9.70
2023-03-10T14:55:49.275Z,9.70
2023-03-10T14:58:07.997Z,9.70
2023-03-10T15:01:16.621Z,9.60
2023-03-10T15:03:58.375Z,9.60
2023-03-10T15:06:24.476Z,9.60
2023-03-10T15:08:51.552Z,9.70
2023-03-10T15:11:37.230Z,9.70
2023-03-10T15:14:40.606Z,9.60
2023-03-10T15:18:33.984Z,9.60
2023-03-10T15:19:41.975Z,9.50
2023-03-10T15:22:08.956Z,9.60
2023-03-10T15:24:59.650Z,9.50
2023-03-10T15:27:49.092Z,9.30
2023-03-10T15:30:36.315Z,9.30
2023-03-10T15:33:29.006Z,9.20
2023-03-10T15:35:51.093Z,9.20
2023-03-10T15:38:57.062Z,9.10
2023-03-10T15:41:15.791Z,9.00
2023-03-10T15:43:47.793Z,9.10
2023-03-10T15:46:08.838Z,9.10
2023-03-10T15:48:27.711Z,9.20
2023-03-10T15:50:30.581Z,9.30
2023-03-10T15:52:33.474Z,9.30
2023-03-10T15:57:58.337Z,9.10
2023-03-10T16:00:35.496Z,8.90
2023-03-10T16:02:43.743Z,8.90
2023-03-10T16:08:06.418Z,9.10
2023-03-10T16:09:23.455Z,9.00
2023-03-10T16:15:54.940Z,9.20
2023-03-10T16:18:16.046Z,9.20
2023-03-10T16:20:27.643Z,9.20
2023-03-10T16:22:37.176Z,9.20
2023-03-10T16:25:27.543Z,9.20
2023-03-10T16:27:30.330Z,9.30
2023-03-10T16:29:33.269Z,9.30
2023-03-10T16:31:38.952Z,9.30
2023-03-10T16:33:42.718Z,9.20
2023-03-10T16:36:40.232Z,9.20
2023-03-10T16:39:02.631Z,9.10
2023-03-10T16:41:22.752Z,9.10
2023-03-10T16:43:50.768Z,9.10
2023-03-10T16:46:04.623Z,9.00
2023-03-10T16:48:14.564Z,9.00
2023-03-10T16:50:18.420Z,9.00
2023-03-10T16:52:21.470Z,8.90
2023-03-10T16:54:24.851Z,8.90
2023-03-10T16:56:32.631Z,8.90
2023-03-10T16:58:35.722Z,8.90
2023-03-10T17:00:42.171Z,8.80
2023-03-10T17:02:45.092Z,8.80
2023-03-10T17:04:49.718Z,8.80
2023-03-10T17:06:53.040Z,8.80
2023-03-10T17:08:56.985Z,8.80
2023-03-10T17:11:00.211Z,8.80
2023-03-10T17:13:03.327Z,8.70
2023-03-10T17:15:07.224Z,8.70
2023-03-10T17:17:09.998Z,8.60
2023-03-10T17:19:15.816Z,8.60
2023-03-10T17:21:21.967Z,8.50
2023-03-10T17:23:25.005Z,8.40
2023-03-10T17:25:28.745Z,8.40
2023-03-10T17:27:34.241Z,8.40
2023-03-10T17:29:37.307Z,8.30
2023-03-10T17:31:40.624Z,8.20
2023-03-10T17:33:44.534Z,8.20
2023-03-10T17:35:47.685Z,8.10
2023-03-10T17:37:58.090Z,8.00
2023-03-10T17:40:01.879Z,7.80
2023-03-10T17:42:13.827Z,7.70
2023-03-10T17:44:43.903Z,7.60
2023-03-10T17:46:50.483Z,7.50
2023-03-10T17:48:54.335Z,7.40
2023-03-10T17:50:57.800Z,7.40
2023-03-10T18:01:56.114Z,7.10
2023-03-10T18:05:07.736Z,7.00
2023-03-10T18:07:15.694Z,7.00
2023-03-10T18:09:36.522Z,6.90
2023-03-10T18:15:36.792Z,6.80
2023-03-10T18:18:00.488Z,6.70
2023-03-10T18:20:17.198Z,6.70
2023-03-10T18:22:43.838Z,6.60
2023-03-10T18:25:09.543Z,6.50
2023-03-10T18:27:26.049Z,6.50
2023-03-10T18:32:26.017Z,5.90
2023-03-10T18:34:49.612Z,5.50
2023-03-10T18:37:09.592Z,5.30
2023-03-10T18:39:18.349Z,5.10
2023-03-10T18:41:38.929Z,4.80
2023-03-10T18:43:46.107Z,4.50
2023-03-10T18:45:50.142Z,4.40
2023-03-10T18:47:57.971Z,4.30
2023-03-10T18:50:06.650Z,4.20
2023-03-10T18:52:25.718Z,4.10
2023-03-10T18:54:32.418Z,4.00
2023-03-10T18:56:45.041Z,3.90
2023-03-10T18:58:51.230Z,3.80
2023-03-10T19:01:11.161Z,3.70
2023-03-10T19:03:23.848Z,3.70
2023-03-10T19:05:36.025Z,3.60
2023-03-10T19:07:42.322Z,3.60
2023-03-10T19:09:47.933Z,3.50
2023-03-10T19:11:53.569Z,3.50
2023-03-10T19:14:01.010Z,3.40
2023-03-10T19:16:06.935Z,3.40
2023-03-10T19:18:13.817Z,3.40
2023-03-10T19:20:18.259Z,3.40
2023-03-10T19:22:24.405Z,3.30
2023-03-10T19:24:27.342Z,3.30
2023-03-10T19:26:32.840Z,3.40
2023-03-10T19:28:37.909Z,3.30
2023-03-10T19:30:42.669Z,3.30
2023-03-10T19:32:45.982Z,3.30
2023-03-10T19:34:48.936Z,3.30
2023-03-10T19:36:51.837Z,3.30
2023-03-10T19:38:54.672Z,3.20
2023-03-10T19:40:57.643Z,3.20
2023-03-10T19:43:00.864Z,3.20
2023-03-10T19:45:06.368Z,3.20
2023-03-10T19:47:09.266Z,3.20
2023-03-10T19:49:12.114Z,3.20
2023-03-10T19:51:21.326Z,3.20
2023-03-10T19:53:25.157Z,3.10
2023-03-10T19:55:29.478Z,3.10
2023-03-10T19:57:32.444Z,3.10
2023-03-10T19:59:35.336Z,3.10
2023-03-10T20:01:41.963Z,3.10
2023-03-10T20:03:45.148Z,3.10
2023-03-10T20:05:48.509Z,3.10
2023-03-10T20:07:51.259Z,3.00
2023-03-10T20:09:54.016Z,3.00
2023-03-10T20:11:57.640Z,3.00
2023-03-10T20:14:00.386Z,3.00
2023-03-10T20:16:03.308Z,3.00
2023-03-10T20:18:07.712Z,3.00
2023-03-10T20:20:12.324Z,3.00
2023-03-10T20:22:18.438Z,3.00
2023-03-10T20:24:21.607Z,3.00
2023-03-10T20:26:25.230Z,3.00
2023-03-10T20:28:28.183Z,2.90
2023-03-10T20:30:32.336Z,3.00
2023-03-10T20:32:35.421Z,3.00
2023-03-10T20:34:41.184Z,2.90
2023-03-10T20:36:44.455Z,2.90
2023-03-10T20:38:48.391Z,2.90
2023-03-10T20:40:52.253Z,2.90
2023-03-10T20:42:57.034Z,2.90
2023-03-10T20:44:59.963Z,2.90
2023-03-10T20:47:02.884Z,2.80
2023-03-10T20:49:06.113Z,2.80
2023-03-10T20:51:10.416Z,2.80
2023-03-10T20:53:13.363Z,2.80
2023-03-10T20:55:19.777Z,2.80
2023-03-10T20:57:23.138Z,2.80
2023-03-10T20:59:26.175Z,2.80
2023-03-10T21:01:30.613Z,2.80
2023-03-10T21:03:34.565Z,2.80
2023-03-10T21:05:37.511Z,2.70
2023-03-10T21:07:42.136Z,2.70
2023-03-10T21:09:45.143Z,2.70
2023-03-10T21:11:48.138Z,2.70
2023-03-10T21:13:52.832Z,2.70
2023-03-10T21:15:57.564Z,2.60
2023-03-10T21:18:00.650Z,2.60
2023-03-10T21:20:05.867Z,2.60
2023-03-10T21:22:09.105Z,2.60
2023-03-10T21:24:13.470Z,2.50
2023-03-10T21:26:18.723Z,2.50
2023-03-10T21:28:21.716Z,2.50
2023-03-10T21:30:24.663Z,2.50
2023-03-10T21:32:27.677Z,2.50
2023-03-10T21:34:31.830Z,2.50
2023-03-10T21:36:34.975Z,2.50
2023-03-10T21:38:38.096Z,2.50
2023-03-10T21:40:42.998Z,2.50
2023-03-10T21:42:46.023Z,2.50
2023-03-10T21:44:49.027Z,2.50
2023-03-10T21:46:52.270Z,2.50
2023-03-10T21:48:55.170Z,2.60
2023-03-10T21:50:58.039Z,2.60
2023-03-10T21:53:01.221Z,2.60
2023-03-10T21:55:04.336Z,2.60
2023-03-10T21:57:08.817Z,2.60
2023-03-10T21:59:13.051Z,2.60
2023-03-10T22:01:17.768Z,2.60
2023-03-10T22:03:20.707Z,2.60
2023-03-10T22:05:24.156Z,2.50
2023-03-10T22:07:27.065Z,2.60
2023-03-10T22:09:31.157Z,2.60
2023-03-10T22:11:34.533Z,2.60
2023-03-10T22:13:39.802Z,2.60
2023-03-10T22:15:42.792Z,2.60
2023-03-10T22:17:48.305Z,2.50
2023-03-10T22:19:51.959Z,2.50
2023-03-10T22:21:54.874Z,2.50
2023-03-10T22:24:00.008Z,2.50
2023-03-10T22:26:03.045Z,2.50
2023-03-10T22:28:06.528Z,2.60
2023-03-10T22:30:13.916Z,2.60
2023-03-10T22:32:16.910Z,2.60
2023-03-10T22:34:19.954Z,2.50
2023-03-10T22:36:23.090Z,2.50
2023-03-10T22:38:26.069Z,2.50
2023-03-10T22:40:29.192Z,2.40
2023-03-10T22:42:32.230Z,2.40
2023-03-10T22:44:36.412Z,2.40
2023-03-10T22:46:43.645Z,2.30
2023-03-10T22:48:46.542Z,2.30
2023-03-10T22:50:49.467Z,2.20
2023-03-10T22:52:52.471Z,2.20
2023-03-10T22:54:55.306Z,2.20
2023-03-10T22:57:00.744Z,2.20
2023-03-10T22:59:05.797Z,2.20
2023-03-10T23:01:08.929Z,2.10
2023-03-10T23:03:13.918Z,2.10
2023-03-10T23:05:17.393Z,2.10
2023-03-10T23:07:20.211Z,2.10
2023-03-10T23:09:23.085Z,2.10
2023-03-10T23:11:26.276Z,2.10
2023-03-10T23:13:29.030Z,2.20
2023-03-10T23:15:34.479Z,2.10
2023-03-10T23:17:37.278Z,2.10
2023-03-10T23:19:41.615Z,2.20
2023-03-10T23:21:44.394Z,2.20
2023-03-10T23:23:48.670Z,2.10
2023-03-10T23:25:52.139Z,2.10
2023-03-10T23:27:55.201Z,2.10
2023-03-10T23:29:58.045Z,2.10
2023-03-10T23:32:00.794Z,2.10
2023-03-10T23:34:03.895Z,2.00
2023-03-10T23:36:08.922Z,2.00
2023-03-10T23:38:11.808Z,2.00
2023-03-10T23:40:17.874Z,2.00
2023-03-10T23:42:21.814Z,2.00
2023-03-10T23:44:24.667Z,2.00
2023-03-10T23:46:27.465Z,1.90
2023-03-10T23:48:30.846Z,1.90
2023-03-10T23:50:36.137Z,1.90
2023-03-10T23:52:40.237Z,1.90
2023-03-10T23:54:43.255Z,1.90
2023-03-10T23:56:46.223Z,1.90
2023-03-10T23:58:49.044Z,1.90
